sensor_id;sensor_type;location;lat;lon;timestamp;P1;durP1;ratioP1;P2;durP2;ratioP2
19482;SDS011;9882;51.166;6.992;2023-03-23T00:01:48;6.55;;;3.00;;
19482;SDS011;9882;51.166;6.992;2023-03-23T00:04:16;6.10;;;2.92;;
19482;SDS011;9882;51.166;6.992;2023-03-23T00:06:45;6.25;;;2.75;;
19482;SDS011;9882;51.166;6.992;2023-03-23T00:09:12;6.55;;;2.90;;
19482;SDS011;9882;51.166;6.992;2023-03-23T00:11:41;3.08;;;2.60;;
19482;SDS011;9882;51.166;6.992;2023-03-23T00:14:09;6.20;;;2.67;;
19482;SDS011;9882;51.166;6.992;2023-03-23T00:16:39;5.55;;;2.92;;
19482;SDS011;9882;51.166;6.992;2023-03-23T00:19:09;6.95;;;2.63;;
19482;SDS011;9882;51.166;6.992;2023-03-23T00:21:39;7.65;;;2.88;;
19482;SDS011;9882;51.166;6.992;2023-03-23T00:24:09;5.60;;;2.60;;
19482;SDS011;9882;51.166;6.992;2023-03-23T00:26:38;5.60;;;2.80;;
19482;SDS011;9882;51.166;6.992;2023-03-23T00:29:07;4.65;;;2.53;;
19482;SDS011;9882;51.166;6.992;2023-03-23T00:31:39;4.93;;;2.50;;
19482;SDS011;9882;51.166;6.992;2023-03-23T00:34:06;3.92;;;2.83;;
19482;SDS011;9882;51.166;6.992;2023-03-23T00:36:37;6.80;;;2.88;;
19482;SDS011;9882;51.166;6.992;2023-03-23T00:39:12;6.70;;;2.72;;
19482;SDS011;9882;51.166;6.992;2023-03-23T00:41:41;5.07;;;2.45;;
19482;SDS011;9882;51.166;6.992;2023-03-23T00:44:10;4.20;;;2.63;;
19482;SDS011;9882;51.166;6.992;2023-03-23T00:46:45;6.25;;;2.60;;
19482;SDS011;9882;51.166;6.992;2023-03-23T00:49:15;7.05;;;2.63;;
19482;SDS011;9882;51.166;6.992;2023-03-23T00:51:44;3.22;;;2.25;;
19482;SDS011;9882;51.166;6.992;2023-03-23T00:54:14;2.63;;;2.28;;
19482;SDS011;9882;51.166;6.992;2023-03-23T00:56:42;5.97;;;2.75;;
19482;SDS011;9882;51.166;6.992;2023-03-23T00:59:09;6.82;;;2.88;;
19482;SDS011;9882;51.166;6.992;2023-03-23T01:01:37;4.15;;;2.47;;
19482;SDS011;9882;51.166;6.992;2023-03-23T01:04:06;7.07;;;2.75;;
19482;SDS011;9882;51.166;6.992;2023-03-23T01:06:35;4.85;;;2.60;;
19482;SDS011;9882;51.166;6.992;2023-03-23T01:09:04;5.30;;;2.50;;
19482;SDS011;9882;51.166;6.992;2023-03-23T01:11:35;4.97;;;2.63;;
19482;SDS011;9882;51.166;6.992;2023-03-23T01:14:04;7.20;;;2.58;;
19482;SDS011;9882;51.166;6.992;2023-03-23T01:16:32;4.78;;;2.63;;
19482;SDS011;9882;51.166;6.992;2023-03-23T01:19:00;5.93;;;2.55;;
19482;SDS011;9882;51.166;6.992;2023-03-23T01:21:28;4.28;;;2.42;;
19482;SDS011;9882;51.166;6.992;2023-03-23T01:23:57;6.07;;;2.58;;
19482;SDS011;9882;51.166;6.992;2023-03-23T01:26:25;5.65;;;2.90;;
19482;SDS011;9882;51.166;6.992;2023-03-23T01:28:57;5.63;;;2.50;;
19482;SDS011;9882;51.166;6.992;2023-03-23T01:31:26;5.53;;;2.70;;
19482;SDS011;9882;51.166;6.992;2023-03-23T01:33:54;4.55;;;2.33;;
19482;SDS011;9882;51.166;6.992;2023-03-23T01:36:24;8.07;;;2.80;;
19482;SDS011;9882;51.166;6.992;2023-03-23T01:39:02;4.00;;;2.50;;
19482;SDS011;9882;51.166;6.992;2023-03-23T01:41:32;8.20;;;2.90;;
19482;SDS011;9882;51.166;6.992;2023-03-23T01:47:16;5.53;;;2.80;;
19482;SDS011;9882;51.166;6.992;2023-03-23T01:49:51;5.90;;;2.70;;
19482;SDS011;9882;51.166;6.992;2023-03-23T01:52:21;8.88;;;3.10;;
19482;SDS011;9882;51.166;6.992;2023-03-23T01:54:57;4.57;;;2.95;;
19482;SDS011;9882;51.166;6.992;2023-03-23T01:57:26;3.78;;;2.53;;
19482;SDS011;9882;51.166;6.992;2023-03-23T01:59:57;3.88;;;2.55;;
19482;SDS011;9882;51.166;6.992;2023-03-23T02:02:51;7.93;;;3.38;;
19482;SDS011;9882;51.166;6.992;2023-03-23T02:05:24;5.82;;;2.75;;
19482;SDS011;9882;51.166;6.992;2023-03-23T02:08:01;5.45;;;3.15;;
19482;SDS011;9882;51.166;6.992;2023-03-23T02:10:34;5.50;;;2.85;;
19482;SDS011;9882;51.166;6.992;2023-03-23T02:13:04;5.85;;;3.13;;
19482;SDS011;9882;51.166;6.992;2023-03-23T02:15:36;4.15;;;2.67;;
19482;SDS011;9882;51.166;6.992;2023-03-23T02:18:15;6.10;;;3.10;;
19482;SDS011;9882;51.166;6.992;2023-03-23T02:21:04;5.18;;;2.90;;
19482;SDS011;9882;51.166;6.992;2023-03-23T02:27:05;8.07;;;3.40;;
19482;SDS011;9882;51.166;6.992;2023-03-23T02:29:45;6.05;;;3.08;;
19482;SDS011;9882;51.166;6.992;2023-03-23T02:32:24;7.78;;;3.42;;
19482;SDS011;9882;51.166;6.992;2023-03-23T02:35:08;3.55;;;2.70;;
19482;SDS011;9882;51.166;6.992;2023-03-23T02:37:40;9.90;;;3.40;;
19482;SDS011;9882;51.166;6.992;2023-03-23T02:40:14;6.90;;;2.95;;
19482;SDS011;9882;51.166;6.992;2023-03-23T02:42:47;5.07;;;2.92;;
19482;SDS011;9882;51.166;6.992;2023-03-23T02:45:19;7.22;;;3.33;;
19482;SDS011;9882;51.166;6.992;2023-03-23T02:47:51;4.18;;;3.00;;
19482;SDS011;9882;51.166;6.992;2023-03-23T02:50:23;8.43;;;3.28;;
19482;SDS011;9882;51.166;6.992;2023-03-23T02:52:54;9.10;;;3.70;;
19482;SDS011;9882;51.166;6.992;2023-03-23T02:55:25;5.93;;;3.33;;
19482;SDS011;9882;51.166;6.992;2023-03-23T02:57:57;12.38;;;3.83;;
19482;SDS011;9882;51.166;6.992;2023-03-23T03:00:28;8.60;;;3.58;;
19482;SDS011;9882;51.166;6.992;2023-03-23T03:02:59;9.07;;;3.40;;
19482;SDS011;9882;51.166;6.992;2023-03-23T03:05:35;7.55;;;3.28;;
19482;SDS011;9882;51.166;6.992;2023-03-23T03:08:14;9.73;;;3.30;;
19482;SDS011;9882;51.166;6.992;2023-03-23T03:10:49;5.15;;;2.97;;
19482;SDS011;9882;51.166;6.992;2023-03-23T03:13:24;8.20;;;3.45;;
19482;SDS011;9882;51.166;6.992;2023-03-23T03:16:04;8.02;;;3.38;;
19482;SDS011;9882;51.166;6.992;2023-03-23T03:18:39;6.90;;;3.30;;
19482;SDS011;9882;51.166;6.992;2023-03-23T03:21:14;7.80;;;3.15;;
19482;SDS011;9882;51.166;6.992;2023-03-23T03:23:47;7.50;;;3.50;;
19482;SDS011;9882;51.166;6.992;2023-03-23T03:26:17;13.80;;;3.30;;
19482;SDS011;9882;51.166;6.992;2023-03-23T03:28:52;6.50;;;3.58;;
19482;SDS011;9882;51.166;6.992;2023-03-23T03:31:24;7.88;;;3.10;;
19482;SDS011;9882;51.166;6.992;2023-03-23T03:33:56;9.52;;;3.65;;
19482;SDS011;9882;51.166;6.992;2023-03-23T03:36:30;7.82;;;3.45;;
19482;SDS011;9882;51.166;6.992;2023-03-23T03:39:05;6.15;;;3.08;;
19482;SDS011;9882;51.166;6.992;2023-03-23T03:41:36;4.38;;;2.80;;
19482;SDS011;9882;51.166;6.992;2023-03-23T03:44:05;6.60;;;3.00;;
19482;SDS011;9882;51.166;6.992;2023-03-23T03:46:34;9.55;;;3.13;;
19482;SDS011;9882;51.166;6.992;2023-03-23T03:49:03;6.10;;;3.05;;
19482;SDS011;9882;51.166;6.992;2023-03-23T03:51:36;7.75;;;3.30;;
19482;SDS011;9882;51.166;6.992;2023-03-23T03:54:05;6.25;;;2.85;;
19482;SDS011;9882;51.166;6.992;2023-03-23T03:56:34;5.10;;;3.08;;
19482;SDS011;9882;51.166;6.992;2023-03-23T03:59:21;5.60;;;2.88;;
19482;SDS011;9882;51.166;6.992;2023-03-23T04:02:09;5.00;;;2.72;;
19482;SDS011;9882;51.166;6.992;2023-03-23T04:04:40;10.23;;;3.10;;
19482;SDS011;9882;51.166;6.992;2023-03-23T04:07:10;6.53;;;2.85;;
19482;SDS011;9882;51.166;6.992;2023-03-23T04:09:39;6.35;;;2.88;;
19482;SDS011;9882;51.166;6.992;2023-03-23T04:12:09;6.63;;;2.90;;
19482;SDS011;9882;51.166;6.992;2023-03-23T04:14:55;4.18;;;2.67;;
19482;SDS011;9882;51.166;6.992;2023-03-23T04:17:31;3.45;;;2.40;;
19482;SDS011;9882;51.166;6.992;2023-03-23T04:20:00;4.78;;;2.47;;
19482;SDS011;9882;51.166;6.992;2023-03-23T04:22:34;5.32;;;2.85;;
19482;SDS011;9882;51.166;6.992;2023-03-23T04:25:02;7.38;;;2.95;;
19482;SDS011;9882;51.166;6.992;2023-03-23T04:27:35;4.85;;;2.72;;
19482;SDS011;9882;51.166;6.992;2023-03-23T04:30:06;4.97;;;2.80;;
19482;SDS011;9882;51.166;6.992;2023-03-23T04:32:38;7.13;;;3.03;;
19482;SDS011;9882;51.166;6.992;2023-03-23T04:35:08;5.35;;;2.83;;
19482;SDS011;9882;51.166;6.992;2023-03-23T04:37:44;5.15;;;2.90;;
19482;SDS011;9882;51.166;6.992;2023-03-23T04:40:15;5.15;;;2.90;;
19482;SDS011;9882;51.166;6.992;2023-03-23T04:42:57;6.07;;;2.55;;
19482;SDS011;9882;51.166;6.992;2023-03-23T04:45:54;6.82;;;2.63;;
19482;SDS011;9882;51.166;6.992;2023-03-23T04:48:24;6.15;;;3.00;;
19482;SDS011;9882;51.166;6.992;2023-03-23T04:51:01;5.68;;;2.80;;
19482;SDS011;9882;51.166;6.992;2023-03-23T04:53:32;4.25;;;2.30;;
19482;SDS011;9882;51.166;6.992;2023-03-23T04:56:01;4.28;;;2.60;;
19482;SDS011;9882;51.166;6.992;2023-03-23T04:58:35;2.67;;;2.35;;
19482;SDS011;9882;51.166;6.992;2023-03-23T05:01:41;7.70;;;2.70;;
19482;SDS011;9882;51.166;6.992;2023-03-23T05:04:19;5.93;;;2.78;;
19482;SDS011;9882;51.166;6.992;2023-03-23T05:07:03;5.95;;;2.65;;
19482;SDS011;9882;51.166;6.992;2023-03-23T05:09:37;4.75;;;2.65;;
19482;SDS011;9882;51.166;6.992;2023-03-23T05:12:05;7.90;;;2.90;;
19482;SDS011;9882;51.166;6.992;2023-03-23T05:14:40;5.65;;;3.05;;
19482;SDS011;9882;51.166;6.992;2023-03-23T05:17:11;4.30;;;2.72;;
19482;SDS011;9882;51.166;6.992;2023-03-23T05:19:43;5.03;;;2.92;;
19482;SDS011;9882;51.166;6.992;2023-03-23T05:22:32;5.90;;;2.80;;
19482;SDS011;9882;51.166;6.992;2023-03-23T05:25:02;3.10;;;2.45;;
19482;SDS011;9882;51.166;6.992;2023-03-23T05:27:34;4.13;;;2.90;;
19482;SDS011;9882;51.166;6.992;2023-03-23T05:30:11;4.82;;;2.83;;
19482;SDS011;9882;51.166;6.992;2023-03-23T05:32:42;5.18;;;2.85;;
19482;SDS011;9882;51.166;6.992;2023-03-23T05:35:41;5.60;;;2.58;;
19482;SDS011;9882;51.166;6.992;2023-03-23T05:38:08;6.07;;;3.00;;
19482;SDS011;9882;51.166;6.992;2023-03-23T05:40:38;4.38;;;2.83;;
19482;SDS011;9882;51.166;6.992;2023-03-23T05:43:12;3.05;;;2.50;;
19482;SDS011;9882;51.166;6.992;2023-03-23T05:45:52;7.75;;;2.97;;
19482;SDS011;9882;51.166;6.992;2023-03-23T05:48:20;3.25;;;2.80;;
19482;SDS011;9882;51.166;6.992;2023-03-23T05:50:48;5.28;;;2.85;;
19482;SDS011;9882;51.166;6.992;2023-03-23T05:53:17;7.85;;;3.08;;
19482;SDS011;9882;51.166;6.992;2023-03-23T05:55:46;8.25;;;3.15;;
19482;SDS011;9882;51.166;6.992;2023-03-23T05:58:21;7.38;;;2.92;;
19482;SDS011;9882;51.166;6.992;2023-03-23T06:00:50;6.43;;;2.90;;
19482;SDS011;9882;51.166;6.992;2023-03-23T06:03:23;6.50;;;2.72;;
19482;SDS011;9882;51.166;6.992;2023-03-23T06:05:57;6.10;;;2.70;;
19482;SDS011;9882;51.166;6.992;2023-03-23T06:08:33;6.68;;;3.33;;
19482;SDS011;9882;51.166;6.992;2023-03-23T06:11:04;7.15;;;2.97;;
19482;SDS011;9882;51.166;6.992;2023-03-23T06:13:37;7.88;;;3.10;;
19482;SDS011;9882;51.166;6.992;2023-03-23T06:16:08;6.05;;;2.85;;
19482;SDS011;9882;51.166;6.992;2023-03-23T06:19:07;8.20;;;2.92;;
19482;SDS011;9882;51.166;6.992;2023-03-23T06:21:39;7.45;;;2.78;;
19482;SDS011;9882;51.166;6.992;2023-03-23T06:24:27;9.93;;;3.10;;
19482;SDS011;9882;51.166;6.992;2023-03-23T06:26:56;5.63;;;3.13;;
19482;SDS011;9882;51.166;6.992;2023-03-23T06:29:25;5.13;;;2.80;;
19482;SDS011;9882;51.166;6.992;2023-03-23T06:31:57;4.35;;;2.50;;
19482;SDS011;9882;51.166;6.992;2023-03-23T06:34:31;4.35;;;2.60;;
19482;SDS011;9882;51.166;6.992;2023-03-23T06:37:17;5.68;;;2.97;;
19482;SDS011;9882;51.166;6.992;2023-03-23T06:39:59;8.60;;;3.35;;
19482;SDS011;9882;51.166;6.992;2023-03-23T06:42:37;11.73;;;3.53;;
19482;SDS011;9882;51.166;6.992;2023-03-23T06:45:43;7.93;;;2.58;;
19482;SDS011;9882;51.166;6.992;2023-03-23T06:48:29;10.43;;;2.78;;
19482;SDS011;9882;51.166;6.992;2023-03-23T06:50:58;4.43;;;2.42;;
19482;SDS011;9882;51.166;6.992;2023-03-23T06:53:28;6.65;;;2.80;;
19482;SDS011;9882;51.166;6.992;2023-03-23T06:55:57;8.20;;;3.15;;
19482;SDS011;9882;51.166;6.992;2023-03-23T06:58:27;8.32;;;2.83;;
19482;SDS011;9882;51.166;6.992;2023-03-23T07:00:55;5.10;;;2.58;;
19482;SDS011;9882;51.166;6.992;2023-03-23T07:03:29;6.38;;;2.72;;
19482;SDS011;9882;51.166;6.992;2023-03-23T07:05:58;10.38;;;2.75;;
19482;SDS011;9882;51.166;6.992;2023-03-23T07:08:30;4.93;;;2.55;;
19482;SDS011;9882;51.166;6.992;2023-03-23T07:10:57;8.60;;;2.80;;
19482;SDS011;9882;51.166;6.992;2023-03-23T07:13:29;11.57;;;2.97;;
19482;SDS011;9882;51.166;6.992;2023-03-23T07:15:59;3.80;;;2.42;;
19482;SDS011;9882;51.166;6.992;2023-03-23T07:18:28;5.40;;;2.38;;
19482;SDS011;9882;51.166;6.992;2023-03-23T07:20:58;6.65;;;2.63;;
19482;SDS011;9882;51.166;6.992;2023-03-23T07:23:30;6.07;;;2.53;;
19482;SDS011;9882;51.166;6.992;2023-03-23T07:26:03;7.43;;;2.33;;
19482;SDS011;9882;51.166;6.992;2023-03-23T07:28:43;9.43;;;2.80;;
19482;SDS011;9882;51.166;6.992;2023-03-23T07:31:25;6.47;;;2.53;;
19482;SDS011;9882;51.166;6.992;2023-03-23T07:33:53;5.32;;;2.03;;
19482;SDS011;9882;51.166;6.992;2023-03-23T07:36:25;6.25;;;2.42;;
19482;SDS011;9882;51.166;6.992;2023-03-23T07:38:53;8.18;;;2.75;;
19482;SDS011;9882;51.166;6.992;2023-03-23T07:41:22;3.88;;;2.30;;
19482;SDS011;9882;51.166;6.992;2023-03-23T07:43:53;4.22;;;2.35;;
19482;SDS011;9882;51.166;6.992;2023-03-23T07:46:30;6.55;;;2.85;;
19482;SDS011;9882;51.166;6.992;2023-03-23T07:49:09;9.55;;;2.25;;
19482;SDS011;9882;51.166;6.992;2023-03-23T07:51:42;10.52;;;2.85;;
19482;SDS011;9882;51.166;6.992;2023-03-23T07:54:12;7.18;;;2.50;;
19482;SDS011;9882;51.166;6.992;2023-03-23T07:56:44;5.47;;;2.15;;
19482;SDS011;9882;51.166;6.992;2023-03-23T07:59:22;7.65;;;2.53;;
19482;SDS011;9882;51.166;6.992;2023-03-23T08:01:50;9.90;;;2.80;;
19482;SDS011;9882;51.166;6.992;2023-03-23T08:04:41;4.47;;;2.30;;
19482;SDS011;9882;51.166;6.992;2023-03-23T08:07:20;5.22;;;2.50;;
19482;SDS011;9882;51.166;6.992;2023-03-23T08:09:47;6.13;;;2.47;;
19482;SDS011;9882;51.166;6.992;2023-03-23T08:12:33;3.83;;;2.20;;
19482;SDS011;9882;51.166;6.992;2023-03-23T08:15:25;4.43;;;2.13;;
19482;SDS011;9882;51.166;6.992;2023-03-23T08:18:19;6.72;;;2.35;;
19482;SDS011;9882;51.166;6.992;2023-03-23T08:20:52;4.50;;;2.17;;
19482;SDS011;9882;51.166;6.992;2023-03-23T08:23:29;3.53;;;2.03;;
19482;SDS011;9882;51.166;6.992;2023-03-23T08:26:28;6.95;;;2.30;;
19482;SDS011;9882;51.166;6.992;2023-03-23T08:29:11;2.53;;;2.10;;
19482;SDS011;9882;51.166;6.992;2023-03-23T08:31:58;8.35;;;2.33;;
19482;SDS011;9882;51.166;6.992;2023-03-23T08:34:40;5.03;;;2.22;;
19482;SDS011;9882;51.166;6.992;2023-03-23T08:37:38;10.23;;;2.00;;
19482;SDS011;9882;51.166;6.992;2023-03-23T08:40:22;4.93;;;2.00;;
19482;SDS011;9882;51.166;6.992;2023-03-23T08:43:04;5.78;;;2.42;;
19482;SDS011;9882;51.166;6.992;2023-03-23T08:45:50;8.02;;;2.22;;
19482;SDS011;9882;51.166;6.992;2023-03-23T08:48:38;9.10;;;2.40;;
19482;SDS011;9882;51.166;6.992;2023-03-23T08:51:41;3.97;;;2.10;;
19482;SDS011;9882;51.166;6.992;2023-03-23T08:54:09;4.60;;;2.28;;
19482;SDS011;9882;51.166;6.992;2023-03-23T08:56:59;6.63;;;2.50;;
19482;SDS011;9882;51.166;6.992;2023-03-23T08:59:50;9.07;;;2.38;;
19482;SDS011;9882;51.166;6.992;2023-03-23T09:02:30;6.45;;;2.00;;
19482;SDS011;9882;51.166;6.992;2023-03-23T09:05:15;5.82;;;2.60;;
19482;SDS011;9882;51.166;6.992;2023-03-23T09:08:01;5.38;;;2.40;;
19482;SDS011;9882;51.166;6.992;2023-03-23T09:10:29;5.43;;;2.22;;
19482;SDS011;9882;51.166;6.992;2023-03-23T09:12:57;5.32;;;2.25;;
19482;SDS011;9882;51.166;6.992;2023-03-23T09:15:24;6.57;;;2.42;;
19482;SDS011;9882;51.166;6.992;2023-03-23T09:17:52;4.75;;;2.28;;
19482;SDS011;9882;51.166;6.992;2023-03-23T09:20:23;7.53;;;2.80;;
19482;SDS011;9882;51.166;6.992;2023-03-23T09:22:53;10.63;;;2.60;;
19482;SDS011;9882;51.166;6.992;2023-03-23T09:25:23;12.60;;;2.70;;
19482;SDS011;9882;51.166;6.992;2023-03-23T09:27:53;8.70;;;2.55;;
19482;SDS011;9882;51.166;6.992;2023-03-23T09:30:22;9.30;;;2.90;;
19482;SDS011;9882;51.166;6.992;2023-03-23T09:32:52;7.82;;;2.55;;
19482;SDS011;9882;51.166;6.992;2023-03-23T09:35:21;5.70;;;2.58;;
19482;SDS011;9882;51.166;6.992;2023-03-23T09:37:50;8.20;;;2.50;;
19482;SDS011;9882;51.166;6.992;2023-03-23T09:40:20;5.80;;;2.40;;
19482;SDS011;9882;51.166;6.992;2023-03-23T09:42:55;6.50;;;2.28;;
19482;SDS011;9882;51.166;6.992;2023-03-23T09:45:43;10.27;;;2.60;;
19482;SDS011;9882;51.166;6.992;2023-03-23T09:48:33;2.70;;;1.85;;
19482;SDS011;9882;51.166;6.992;2023-03-23T09:51:11;10.05;;;2.67;;
19482;SDS011;9882;51.166;6.992;2023-03-23T09:53:52;5.10;;;2.28;;
19482;SDS011;9882;51.166;6.992;2023-03-23T09:56:29;7.43;;;2.45;;
19482;SDS011;9882;51.166;6.992;2023-03-23T09:58:59;6.75;;;2.70;;
19482;SDS011;9882;51.166;6.992;2023-03-23T10:01:32;10.63;;;3.10;;
19482;SDS011;9882;51.166;6.992;2023-03-23T10:04:03;11.40;;;2.47;;
19482;SDS011;9882;51.166;6.992;2023-03-23T10:06:43;4.75;;;2.40;;
19482;SDS011;9882;51.166;6.992;2023-03-23T10:09:13;6.93;;;2.15;;
19482;SDS011;9882;51.166;6.992;2023-03-23T10:11:47;7.82;;;2.30;;
19482;SDS011;9882;51.166;6.992;2023-03-23T10:14:28;6.18;;;2.58;;
19482;SDS011;9882;51.166;6.992;2023-03-23T10:17:14;8.63;;;2.42;;
19482;SDS011;9882;51.166;6.992;2023-03-23T10:19:46;8.93;;;2.67;;
19482;SDS011;9882;51.166;6.992;2023-03-23T10:22:20;14.25;;;2.42;;
19482;SDS011;9882;51.166;6.992;2023-03-23T10:24:54;13.50;;;2.90;;
19482;SDS011;9882;51.166;6.992;2023-03-23T10:27:26;8.93;;;2.65;;
19482;SDS011;9882;51.166;6.992;2023-03-23T10:30:01;6.90;;;2.42;;
19482;SDS011;9882;51.166;6.992;2023-03-23T10:32:40;8.52;;;2.70;;
19482;SDS011;9882;51.166;6.992;2023-03-23T10:35:11;6.88;;;2.38;;
19482;SDS011;9882;51.166;6.992;2023-03-23T10:37:46;7.72;;;2.50;;
19482;SDS011;9882;51.166;6.992;2023-03-23T10:40:17;8.13;;;2.67;;
19482;SDS011;9882;51.166;6.992;2023-03-23T10:42:49;6.45;;;2.88;;
19482;SDS011;9882;51.166;6.992;2023-03-23T10:45:19;9.40;;;3.30;;
19482;SDS011;9882;51.166;6.992;2023-03-23T10:47:49;6.85;;;2.60;;
19482;SDS011;9882;51.166;6.992;2023-03-23T10:50:22;6.50;;;2.30;;
19482;SDS011;9882;51.166;6.992;2023-03-23T10:52:53;9.85;;;2.78;;
19482;SDS011;9882;51.166;6.992;2023-03-23T10:55:24;7.72;;;2.67;;
19482;SDS011;9882;51.166;6.992;2023-03-23T10:58:03;4.18;;;2.30;;
19482;SDS011;9882;51.166;6.992;2023-03-23T11:00:32;4.93;;;2.22;;
19482;SDS011;9882;51.166;6.992;2023-03-23T11:03:00;5.43;;;2.30;;
19482;SDS011;9882;51.166;6.992;2023-03-23T11:05:35;3.38;;;1.95;;
19482;SDS011;9882;51.166;6.992;2023-03-23T11:08:11;2.42;;;1.95;;
19482;SDS011;9882;51.166;6.992;2023-03-23T11:10:42;13.73;;;2.97;;
19482;SDS011;9882;51.166;6.992;2023-03-23T11:13:16;11.15;;;2.42;;
19482;SDS011;9882;51.166;6.992;2023-03-23T11:15:45;4.85;;;2.60;;
19482;SDS011;9882;51.166;6.992;2023-03-23T11:18:18;4.72;;;2.45;;
19482;SDS011;9882;51.166;6.992;2023-03-23T11:20:48;6.20;;;2.50;;
19482;SDS011;9882;51.166;6.992;2023-03-23T11:23:21;5.43;;;2.47;;
19482;SDS011;9882;51.166;6.992;2023-03-23T11:25:52;3.67;;;2.15;;
19482;SDS011;9882;51.166;6.992;2023-03-23T11:28:29;5.10;;;2.20;;
19482;SDS011;9882;51.166;6.992;2023-03-23T11:30:59;5.40;;;2.40;;
19482;SDS011;9882;51.166;6.992;2023-03-23T11:33:30;3.72;;;1.95;;
19482;SDS011;9882;51.166;6.992;2023-03-23T11:36:05;4.15;;;2.60;;
19482;SDS011;9882;51.166;6.992;2023-03-23T11:38:35;5.07;;;2.20;;
19482;SDS011;9882;51.166;6.992;2023-03-23T11:41:08;9.80;;;2.97;;
19482;SDS011;9882;51.166;6.992;2023-03-23T11:43:39;4.78;;;2.65;;
19482;SDS011;9882;51.166;6.992;2023-03-23T11:46:11;7.68;;;2.80;;
19482;SDS011;9882;51.166;6.992;2023-03-23T11:48:44;7.03;;;2.70;;
19482;SDS011;9882;51.166;6.992;2023-03-23T11:51:19;6.80;;;2.67;;
19482;SDS011;9882;51.166;6.992;2023-03-23T11:53:57;9.15;;;2.20;;
19482;SDS011;9882;51.166;6.992;2023-03-23T11:56:29;5.07;;;2.47;;
19482;SDS011;9882;51.166;6.992;2023-03-23T11:58:59;6.75;;;2.53;;
19482;SDS011;9882;51.166;6.992;2023-03-23T12:01:34;5.82;;;2.70;;
19482;SDS011;9882;51.166;6.992;2023-03-23T12:04:30;4.45;;;2.88;;
19482;SDS011;9882;51.166;6.992;2023-03-23T12:07:10;3.40;;;2.17;;
19482;SDS011;9882;51.166;6.992;2023-03-23T12:10:19;5.20;;;2.63;;
19482;SDS011;9882;51.166;6.992;2023-03-23T12:12:55;9.23;;;2.95;;
19482;SDS011;9882;51.166;6.992;2023-03-23T12:15:30;2.65;;;2.33;;
19482;SDS011;9882;51.166;6.992;2023-03-23T12:18:09;4.63;;;2.58;;
19482;SDS011;9882;51.166;6.992;2023-03-23T12:20:49;3.60;;;2.08;;
19482;SDS011;9882;51.166;6.992;2023-03-23T12:23:24;3.85;;;2.45;;
19482;SDS011;9882;51.166;6.992;2023-03-23T12:28:49;4.95;;;2.40;;
19482;SDS011;9882;51.166;6.992;2023-03-23T12:31:28;9.88;;;3.70;;
19482;SDS011;9882;51.166;6.992;2023-03-23T12:34:06;10.23;;;3.38;;
19482;SDS011;9882;51.166;6.992;2023-03-23T12:36:50;7.60;;;3.55;;
19482;SDS011;9882;51.166;6.992;2023-03-23T12:39:40;10.55;;;4.10;;
19482;SDS011;9882;51.166;6.992;2023-03-23T12:42:37;15.43;;;3.72;;
19482;SDS011;9882;51.166;6.992;2023-03-23T12:45:15;7.70;;;3.70;;
19482;SDS011;9882;51.166;6.992;2023-03-23T12:47:49;14.00;;;4.50;;
19482;SDS011;9882;51.166;6.992;2023-03-23T12:50:24;5.75;;;3.22;;
19482;SDS011;9882;51.166;6.992;2023-03-23T12:52:57;9.30;;;3.92;;
19482;SDS011;9882;51.166;6.992;2023-03-23T12:55:31;10.88;;;3.42;;
19482;SDS011;9882;51.166;6.992;2023-03-23T12:58:05;5.88;;;3.28;;
19482;SDS011;9882;51.166;6.992;2023-03-23T13:00:46;10.80;;;3.55;;
19482;SDS011;9882;51.166;6.992;2023-03-23T13:03:26;9.63;;;3.83;;
19482;SDS011;9882;51.166;6.992;2023-03-23T13:06:00;6.15;;;3.65;;
19482;SDS011;9882;51.166;6.992;2023-03-23T13:08:34;8.52;;;3.92;;
19482;SDS011;9882;51.166;6.992;2023-03-23T13:11:07;8.02;;;3.45;;
19482;SDS011;9882;51.166;6.992;2023-03-23T13:13:45;11.48;;;4.60;;
19482;SDS011;9882;51.166;6.992;2023-03-23T13:16:20;9.68;;;3.60;;
19482;SDS011;9882;51.166;6.992;2023-03-23T13:19:02;9.65;;;4.18;;
19482;SDS011;9882;51.166;6.992;2023-03-23T13:21:37;9.88;;;3.67;;
19482;SDS011;9882;51.166;6.992;2023-03-23T13:24:10;11.77;;;3.95;;
19482;SDS011;9882;51.166;6.992;2023-03-23T13:26:40;7.13;;;3.70;;
19482;SDS011;9882;51.166;6.992;2023-03-23T13:29:13;6.55;;;3.10;;
19482;SDS011;9882;51.166;6.992;2023-03-23T13:31:44;9.88;;;3.97;;
19482;SDS011;9882;51.166;6.992;2023-03-23T13:34:15;8.98;;;3.65;;
19482;SDS011;9882;51.166;6.992;2023-03-23T13:36:51;12.90;;;4.07;;
19482;SDS011;9882;51.166;6.992;2023-03-23T13:39:24;9.93;;;4.28;;
19482;SDS011;9882;51.166;6.992;2023-03-23T13:42:03;13.27;;;4.53;;
19482;SDS011;9882;51.166;6.992;2023-03-23T13:44:41;14.98;;;4.85;;
19482;SDS011;9882;51.166;6.992;2023-03-23T13:47:21;22.23;;;4.95;;
19482;SDS011;9882;51.166;6.992;2023-03-23T13:49:56;18.70;;;4.65;;
19482;SDS011;9882;51.166;6.992;2023-03-23T13:52:25;14.85;;;4.90;;
19482;SDS011;9882;51.166;6.992;2023-03-23T13:55:18;14.15;;;5.43;;
19482;SDS011;9882;51.166;6.992;2023-03-23T13:57:49;16.10;;;4.50;;
19482;SDS011;9882;51.166;6.992;2023-03-23T14:00:37;10.02;;;4.18;;
19482;SDS011;9882;51.166;6.992;2023-03-23T14:03:15;11.73;;;4.32;;
19482;SDS011;9882;51.166;6.992;2023-03-23T14:05:48;12.95;;;4.38;;
19482;SDS011;9882;51.166;6.992;2023-03-23T14:08:21;8.50;;;4.20;;
19482;SDS011;9882;51.166;6.992;2023-03-23T14:10:52;10.95;;;3.47;;
19482;SDS011;9882;51.166;6.992;2023-03-23T14:13:25;6.93;;;2.90;;
19482;SDS011;9882;51.166;6.992;2023-03-23T14:15:59;10.50;;;3.38;;
19482;SDS011;9882;51.166;6.992;2023-03-23T14:18:32;6.82;;;2.58;;
19482;SDS011;9882;51.166;6.992;2023-03-23T14:21:04;6.88;;;2.47;;
19482;SDS011;9882;51.166;6.992;2023-03-23T14:23:33;5.90;;;2.85;;
19482;SDS011;9882;51.166;6.992;2023-03-23T14:26:01;7.45;;;2.83;;
19482;SDS011;9882;51.166;6.992;2023-03-23T14:28:38;7.10;;;2.53;;
19482;SDS011;9882;51.166;6.992;2023-03-23T14:31:12;3.25;;;2.17;;
19482;SDS011;9882;51.166;6.992;2023-03-23T14:33:45;7.82;;;2.75;;
19482;SDS011;9882;51.166;6.992;2023-03-23T14:36:14;3.97;;;2.55;;
19482;SDS011;9882;51.166;6.992;2023-03-23T14:38:46;5.03;;;2.58;;
19482;SDS011;9882;51.166;6.992;2023-03-23T14:41:14;8.98;;;2.50;;
19482;SDS011;9882;51.166;6.992;2023-03-23T14:43:41;7.88;;;2.80;;
19482;SDS011;9882;51.166;6.992;2023-03-23T14:46:11;4.70;;;2.33;;
19482;SDS011;9882;51.166;6.992;2023-03-23T14:48:46;7.68;;;2.78;;
19482;SDS011;9882;51.166;6.992;2023-03-23T14:51:17;10.23;;;2.85;;
19482;SDS011;9882;51.166;6.992;2023-03-23T14:53:49;7.45;;;3.05;;
19482;SDS011;9882;51.166;6.992;2023-03-23T14:56:31;7.45;;;2.70;;
19482;SDS011;9882;51.166;6.992;2023-03-23T14:59:14;9.13;;;3.13;;
19482;SDS011;9882;51.166;6.992;2023-03-23T15:01:47;11.77;;;3.40;;
19482;SDS011;9882;51.166;6.992;2023-03-23T15:04:17;6.47;;;2.97;;
19482;SDS011;9882;51.166;6.992;2023-03-23T15:06:48;9.38;;;3.10;;
19482;SDS011;9882;51.166;6.992;2023-03-23T15:09:18;4.10;;;2.88;;
19482;SDS011;9882;51.166;6.992;2023-03-23T15:11:52;7.07;;;3.13;;
19482;SDS011;9882;51.166;6.992;2023-03-23T15:14:26;7.88;;;2.85;;
19482;SDS011;9882;51.166;6.992;2023-03-23T15:16:58;8.90;;;2.97;;
19482;SDS011;9882;51.166;6.992;2023-03-23T15:19:28;7.80;;;3.22;;
19482;SDS011;9882;51.166;6.992;2023-03-23T15:22:04;6.45;;;2.67;;
19482;SDS011;9882;51.166;6.992;2023-03-23T15:24:34;13.65;;;3.42;;
19482;SDS011;9882;51.166;6.992;2023-03-23T15:27:11;5.63;;;2.55;;
19482;SDS011;9882;51.166;6.992;2023-03-23T15:29:46;7.97;;;2.88;;
19482;SDS011;9882;51.166;6.992;2023-03-23T15:32:27;11.13;;;3.10;;
19482;SDS011;9882;51.166;6.992;2023-03-23T15:34:57;7.53;;;3.30;;
19482;SDS011;9882;51.166;6.992;2023-03-23T15:50:03;5.95;;;2.70;;
19482;SDS011;9882;51.166;6.992;2023-03-23T16:00:12;8.05;;;3.42;;
19482;SDS011;9882;51.166;6.992;2023-03-23T16:02:41;9.15;;;3.38;;
19482;SDS011;9882;51.166;6.992;2023-03-23T16:05:13;10.35;;;3.08;;
19482;SDS011;9882;51.166;6.992;2023-03-23T16:07:42;12.38;;;4.05;;
19482;SDS011;9882;51.166;6.992;2023-03-23T16:10:14;12.02;;;3.88;;
19482;SDS011;9882;51.166;6.992;2023-03-23T16:12:45;11.32;;;3.83;;
19482;SDS011;9882;51.166;6.992;2023-03-23T16:15:14;11.52;;;3.88;;